ADDS METAR Data INFO
IDs: Format: Raw Decoded Include TAF

Data at: 1350 UTC 23 Jun 2018

K2J9 231335Z AUTO 28010KT 10SM FEW019 28/24 A3000 RMK AO2
K2J9 231315Z AUTO 27007KT 10SM CLR 28/24 A3000 RMK AO2
K2J9 231255Z AUTO 24004KT 10SM CLR 27/24 A3000 RMK AO2
K2J9 231235Z AUTO 24004KT 10SM FEW023 26/24 A3000 RMK AO2
K2J9 231215Z AUTO 00000KT 4SM BR FEW023 25/24 A2999 RMK AO2
K2J9 231155Z AUTO 00000KT 9SM CLR 24/23 A2999 RMK AO2
K2J9 231135Z AUTO 00000KT 5SM BR CLR 24/23 A2998 RMK AO2
K2J9 231115Z AUTO 00000KT 9SM FEW020 23/23 A2997 RMK AO2
K2J9 231055Z AUTO 00000KT 9SM SCT020 22/22 A2997 RMK AO2
K2J9 231035Z AUTO 00000KT 10SM FEW023 23/22 A2996 RMK AO2
K2J9 231015Z AUTO 00000KT 10SM SCT023 BKN028 23/23 A2996 RMK AO2
K2J9 230955Z AUTO 24003KT 9SM 23/23 A2996 RMK AO2
K2J9 230935Z AUTO 00000KT 8SM SCT021 BKN026 BKN030 23/23 A2995 RMK AO2
K2J9 230915Z AUTO 00000KT 8SM SCT021 SCT025 BKN030 23/23 A2994 RMK AO2
K2J9 230855Z AUTO 21003KT 10SM SCT022 SCT031 SCT044 23/23 A2994 RMK AO2
K2J9 230835Z AUTO 22003KT 9SM FEW019 23/23 A2995 RMK AO2
K2J9 230815Z AUTO 00000KT 10SM FEW018 23/23 A2994 RMK AO2
K2J9 230755Z AUTO 00000KT 10SM CLR 24/23 A2994 RMK AO2
K2J9 230735Z AUTO 00000KT 10SM CLR 24/23 A2993 RMK AO2
K2J9 230715Z AUTO 00000KT 10SM FEW019 24/23 A2993 RMK AO2
K2J9 230655Z AUTO 00000KT 10SM FEW019 24/23 A2992 RMK AO2
K2J9 230635Z AUTO 23004KT 10SM FEW018 24/23 A2993 RMK AO2
K2J9 230615Z AUTO 22003KT 10SM FEW018 24/23 A2993 RMK AO2
K2J9 230555Z AUTO 23004KT 10SM CLR 25/23 A2994 RMK AO2
K2J9 230535Z AUTO 21005KT 10SM FEW019 25/23 A2994 RMK AO2
K2J9 230515Z AUTO 22005KT 10SM FEW019 25/23 A2995 RMK AO2
K2J9 230455Z AUTO 21004KT 10SM FEW019 25/23 A2995 RMK AO2
K2J9 230435Z AUTO 22004KT 10SM CLR 25/23 A2995 RMK AO2
K2J9 230415Z AUTO 21005KT 10SM FEW020 25/23 A2995 RMK AO2
K2J9 230355Z AUTO 21005G10KT 10SM CLR 26/23 A2995 RMK AO2
K2J9 230335Z AUTO 22006KT 10SM FEW020 26/23 A2995 RMK AO2
K2J9 230315Z AUTO 22005KT 10SM CLR 26/23 A2995 RMK AO2
K2J9 230255Z AUTO 22005KT 10SM CLR 26/22 A2995 RMK AO2
K2J9 230235Z AUTO 23004KT 10SM CLR 26/22 A2994 RMK AO2
K2J9 230215Z AUTO VRB03KT 10SM CLR 26/22 A2993 RMK AO2
K2J9 230155Z AUTO VRB03KT 10SM CLR 27/21 A2993 RMK AO2
K2J9 230135Z AUTO 23005KT 10SM CLR 28/21 A2992 RMK AO2
K2J9 230115Z AUTO 24005KT 10SM CLR 28/22 A2992 RMK AO2
K2J9 230055Z AUTO 23006KT 10SM CLR 28/22 A2991 RMK AO2
K2J9 230035Z AUTO 23007G12KT 10SM CLR 29/22 A2990 RMK AO2
K2J9 230015Z AUTO 23006KT 10SM CLR 30/22 A2990 RMK AO2
K2J9 222355Z AUTO 24008G16KT 10SM CLR 30/22 A2990 RMK AO2
K2J9 222335Z AUTO 23009G17KT 10SM CLR 31/22 A2989 RMK AO2
K2J9 222315Z AUTO 24011KT 10SM CLR 31/22 A2989 RMK AO2
K2J9 222255Z AUTO 23007G17KT 200V260 10SM CLR 32/22 A2989 RMK AO2
K2J9 222235Z AUTO 21010KT 10SM CLR 32/21 A2987 RMK AO2
K2J9 222215Z AUTO 24010G16KT 10SM CLR 33/19 A2987 RMK AO2
K2J9 222155Z AUTO VRB06G14KT 10SM CLR 33/19 A2989 RMK AO2
K2J9 222135Z AUTO 25009KT 10SM CLR 33/18 A2989 RMK AO2
K2J9 222115Z AUTO 25009KT 10SM CLR 34/19 A2990 RMK AO2
K2J9 222055Z AUTO 25009KT 230V290 10SM FEW055 33/21 A2990 RMK AO2
K2J9 222035Z AUTO 25012G18KT 220V280 10SM CLR 33/22 A2991 RMK AO2
K2J9 222015Z AUTO 25012KT 10SM FEW039 FEW045 FEW080 32/23 A2991 RMK AO2
K2J9 221955Z AUTO 26006G11KT 5SM -RA SCT038 BKN047 BKN055 31/25 A2993 RMK AO2
K2J9 221935Z AUTO 24009KT 10SM SCT038 BKN046 BKN055 32/24 A2993 RMK AO2
K2J9 221915Z AUTO 19007KT 10SM SCT034 BKN042 BKN050 32/25 A2993 RMK AO2
K2J9 221855Z AUTO 22006G12KT 10SM BKN033 BKN043 31/24 A2994 RMK AO2
K2J9 221835Z AUTO 25007KT 10SM FEW034 32/24 A2995 RMK AO2
K2J9 221815Z AUTO 21007KT 10SM CLR 32/25 A2996 RMK AO2
K2J9 221755Z AUTO 24005G10KT 10SM FEW031 FEW042 FEW050 31/24 A2996 RMK AO2
K2J9 221735Z AUTO 27007KT 10SM FEW027 31/24 A2997 RMK AO2
K2J9 221715Z AUTO 22008KT 10SM FEW028 30/24 A2996 RMK AO2
K2J9 221655Z AUTO VRB04KT 10SM CLR 28/24 A2998 RMK AO2
K2J9 221635Z AUTO 00000KT 10SM CLR 28/24 A2998 RMK AO2
K2J9 221615Z AUTO 00000KT 10SM CLR 27/24 A2999 RMK AO2
K2J9 221555Z AUTO 26006KT 10SM CLR 26/24 A2998 RMK AO2
K2J9 221535Z AUTO 28006KT 10SM FEW018 FEW026 SCT038 25/24 A3000 RMK AO2
K2J9 221515Z AUTO 00000KT 9SM -DZ BKN019 BKN026 BKN036 24/24 A2999 RMK AO2
K2J9 221455Z AUTO 00000KT 10SM FEW003 BKN020 OVC031 24/23 A2999 RMK AO2
K2J9 221435Z AUTO VRB04G15KT 2SM -RA SCT020 BKN027 BKN033 24/23 A2998 RMK AO2
K2J9 221415Z AUTO 25006G14KT 6SM -RA SCT018 BKN027 28/25 A2997 RMK AO2
K2J9 221355Z AUTO 23007KT 10SM BKN017 OVC022 28/25 A2996 RMK AO2
K2J9 221335Z AUTO VRB05KT 10SM BKN018 BKN022 28/25 A2997 RMK AO2
K2J9 221315Z AUTO 00000KT 10SM OVC021 27/24 A2997 RMK AO2
K2J9 221255Z AUTO VRB03KT 10SM SCT021 SCT110 27/24 A2997 RMK AO2
K2J9 221235Z AUTO 24003KT 10SM CLR 26/24 A2997 RMK AO2
K2J9 221215Z AUTO 00000KT 9SM CLR 25/24 A2997 RMK AO2
K2J9 221155Z AUTO 00000KT 9SM FEW021 SCT026 BKN042 24/23 A2996 RMK AO2
K2J9 221135Z AUTO 00000KT 10SM BKN025 BKN031 24/23 A2996 RMK AO2
K2J9 221115Z AUTO 00000KT 10SM SCT024 SCT031 23/23 A2995 RMK AO2
K2J9 221055Z AUTO 00000KT 9SM FEW024 FEW029 FEW034 23/23 A2995 RMK AO2
K2J9 221035Z AUTO 00000KT 10SM FEW022 FEW027 SCT032 23/23 A2994 RMK AO2
K2J9 221015Z AUTO 00000KT 10SM FEW019 SCT026 SCT032 23/23 A2994 RMK AO2
K2J9 220955Z AUTO 00000KT 10SM SCT019 SCT023 BKN040 23/23 A2993 RMK AO2
K2J9 220915Z AUTO 00000KT 10SM BKN019 BKN031 BKN037 23/23 A2992 RMK AO2
K2J9 220855Z AUTO 00000KT 10SM BKN018 BKN024 OVC037 24/23 A2991 RMK AO2
K2J9 220835Z AUTO 00000KT 10SM SCT022 BKN032 24/23 A2991 RMK AO2
K2J9 220755Z AUTO 00000KT 10SM CLR 24/23 A2991 RMK AO2
K2J9 220735Z AUTO VRB03KT 10SM FEW020 FEW028 FEW035 24/23 A2990 RMK AO2
K2J9 220715Z AUTO 00000KT 10SM BKN020 BKN031 BKN037 25/23 A2990 RMK AO2
K2J9 220655Z AUTO 27004KT 10SM BKN019 BKN026 BKN032 25/23 A2990 RMK AO2
K2J9 220635Z AUTO 28004KT 10SM FEW024 FEW034 25/23 A2990 RMK AO2
K2J9 220615Z AUTO 26004KT 10SM CLR 25/23 A2990 RMK AO2
K2J9 220555Z AUTO 27004KT 10SM CLR 25/23 A2990 RMK AO2
K2J9 220535Z AUTO 25003KT 10SM CLR 25/23 A2991 RMK AO2
K2J9 220515Z AUTO 26006KT 10SM CLR 26/23 A2991 RMK AO2
K2J9 220455Z AUTO 23004KT 10SM CLR 26/23 A2991 RMK AO2
K2J9 220435Z AUTO 24003KT 10SM CLR 26/23 A2992 RMK AO2
K2J9 220415Z AUTO 00000KT 10SM CLR 26/23 A2991 RMK AO2
K2J9 220355Z AUTO 23003KT 10SM CLR 27/23 A2991 RMK AO2
K2J9 220335Z AUTO 27004G10KT 10SM CLR 27/23 A2992 RMK AO2
K2J9 220315Z AUTO 25007KT 10SM CLR 27/23 A2992 RMK AO2
K2J9 220255Z AUTO 24005KT 10SM CLR 28/23 A2992 RMK AO2
K2J9 220235Z AUTO 26005KT 10SM CLR 28/23 A2992 RMK AO2
K2J9 220215Z AUTO 26005KT 10SM CLR 28/23 A2993 RMK AO2
K2J9 220155Z AUTO 25006KT 10SM CLR 28/22 A2993 RMK AO2